Kezdőlap
METAR-TAF:

METAR-TAF

Repülőterek :

Jászvásár, Románia

földrajzi szélesség: 47-10N, földrajzi hosszúság: 027-38E, magasság: 102 m

Jelenlegi meteorológiai megfigyelések

A jelentés 20 perccel ezelõtt készült, 15:00 UTC
Kelet-délkeleti szél 4 kt
Hőmérséklet 5°C
Páratartalom 41%
Légköri nyomás 1019 hPa
Látótávolság 10 km, vagy több
felhőtlen 1500 m magasságban, és nincs gomolyfelhõ

METAR: LRIA 251500Z 11004KT CAVOK 05/M07 Q1019

Idő: 17:20 (15:20 UTC)

Előrejelzés

A jelentés 1 órával és 20 perccel ezelõtt készült, 14:00 UTC
Az előrejelzés 25-én 15 óra UTC és 25-én 24 óra UTC között érvényes
Különbözõ irányokból fújó szél 3 kt
Látótávolság 10 km, vagy több
felhőtlen 1500 m magasságban, és nincs gomolyfelhõ

TAF: LRIA 251400Z 2515/2524 VRB03KT CAVOK

Meteorológiai megfigyelések és előrejelzések több, mint 4000 repülőtéren (METAR és TAF jelentéseket).

A térképen piros és sárga pontok jelzik az elérhető meteorológiai állomásokat.

Mozgassa az egeret a pont fölött, hogy megjelenjen az állomás neve.

Azután kattintson az időjárási megfigyelések és előrejelzések megtekintéséhez.

A térkép megváltoztatása: kattintson a fekete keresztel jelölt zöld gombra ráközelítéshez, a vonallal jelölt zöld gombra távolításhoz, vagy a zöld nyilakra a szomszédos térképek eléréséhez.


METAR-TAF: